Flight Track Log - Related Links

Times and Time Zones

All times are in EDT time to prevent confusion due to time zone crossing. See the EJA727 flight status page for this flight to view local times or setup timezone preferences in your user account.

Time Position Orientation Groundspeed Altitude Reporting Facility
EDT Latitude Longitude Course Direction KTS MPH feet Rate Location/Type
Sun 10:37:20 AM 38.0844 -85.7436 357° North 237 273 5,200  Level Indianapolis Center
Sun 10:38:22 AM 38.0564 -85.8233 246° West 284 327 8,200 2,419 Climbing Indianapolis Center
Sun 10:39:24 AM 38.1117 -85.8936 315° West 305 351 10,200 2,081 Climbing Indianapolis Center
Sun 10:40:26 AM 38.2194 -85.9144 351° North 330 380 12,500 2,032 Climbing Indianapolis Center
Sun 10:41:28 AM 38.3258 -85.9331 352° North 369 425 14,400 1,694 Climbing Indianapolis Center
Sun 10:42:00 AM 38.5641 -85.9920 357° North  Level FlightAware Approximate
Sun 10:42:30 AM 38.4389 -85.9839 341° North 411 473 16,000  Level Indianapolis Center
Sun 10:43:32 AM 38.5486 -86.0392 338° Northwest 424 488 16,300 968 Climbing Indianapolis Center
Sun 10:44:34 AM 38.6567 -86.0931 339° North 417 480 18,000 2,081 Climbing Indianapolis Center
Sun 10:45:36 AM 38.7678 -86.1478 339° North 424 488 20,600 2,758 Climbing Indianapolis Center
Sun 10:46:38 AM 38.9022 -86.2158 339° North 437 503 23,700 2,274 Climbing Indianapolis Center
Sun 10:47:40 AM 39.0267 -86.2781 339° North 470 541 25,300 1,500 Climbing Indianapolis Center
Sun 10:48:42 AM 39.1544 -86.3442 338° Northwest 491 565 26,800 1,756 Climbing Indianapolis Center
Sun 10:49:43 AM 39.2794 -86.4078 339° North 486 559 28,900 1,512 Climbing Indianapolis Center
Sun 10:50:45 AM 39.4053 -86.4706 339° North 483 556 29,900 532 Climbing Indianapolis Center
Sun 10:51:47 AM 39.5344 -86.5375 338° Northwest 491 565 30,000 48 Climbing Indianapolis Center
Sun 10:52:49 AM 39.6694 -86.6025 340° North 506 582 30,000  Level Indianapolis Center
Sun 10:53:51 AM 39.8072 -86.6525 344° North 507 583 30,000  Level Indianapolis Center
Sun 10:54:53 AM 39.9708 -86.7167 343° North 508 585 30,000  Level Indianapolis Center
Sun 10:55:55 AM 40.1056 -86.7694 343° North 506 582 30,000  Level Indianapolis Center
Sun 10:56:11 AM 40.1325 -86.7792 345° North 503 579 30,000 615 Level Chicago Center
Sun 10:57:13 AM 40.2664 -86.8317 343° North 501 577 30,800 976 Climbing Chicago Center
Sun 10:58:14 AM 40.3981 -86.8833 343° North 496 571 32,000 585 Climbing Chicago Center
Sun 10:59:16 AM 40.5333 -86.9397 342° North 507 583 32,000 1,113 Level Chicago Center
Sun 11:00:18 AM 40.6947 -87.0042 343° North 502 578 34,300 1,463 Climbing Chicago Center
Sun 11:01:19 AM 40.8178 -87.0533 343° North 486 559 35,000 341 Climbing Chicago Center
Sun 11:02:21 AM 40.9461 -87.1028 344° North 483 556 35,000  Level Chicago Center
Sun 11:03:23 AM 41.0728 -87.1497 344° North 474 545 35,000 -390 Level Chicago Center
Sun 11:04:24 AM 41.2292 -87.1692 355° North 471 542 34,200 -1,171 Descending Chicago Center
Sun 11:05:26 AM 41.3583 -87.1853 355° North 471 542 32,600 -1,645 Descending Chicago Center
Sun 11:06:28 AM 41.4908 -87.2006 355° North 481 554 30,800 -1,854 Descending Chicago Center
Sun 11:07:29 AM 41.6278 -87.2181 355° North 496 571 28,800 -1,951 Descending Chicago Center
Sun 11:08:31 AM 41.7628 -87.2353 355° North 495 570 26,800 -2,000 Descending Chicago Center
Sun 11:09:32 AM 41.8883 -87.2508 355° North 465 535 24,700 -2,146 Descending Chicago Center
Sun 11:10:34 AM 42.0306 -87.2686 355° North 436 502 22,400 -2,081 Descending Chicago Center
Sun 11:11:36 AM 42.1244 -87.3367 332° Northwest 402 463 20,400 -2,195 Descending Chicago Center
Sun 11:12:37 AM 42.1514 -87.4664 286° West 363 418 17,900 -2,341 Descending Chicago Center
Sun 11:13:39 AM 42.1703 -87.5964 281° West 358 412 15,600 -2,146 Descending Chicago Center
Sun 11:14:40 AM 42.1878 -87.7161 281° West 334 384 13,500 -2,049 Descending Chicago Center
Sun 11:15:42 AM 42.2028 -87.8275 280° West 311 358 11,400 -2,226 Descending Chicago Center
Sun 11:16:44 AM 42.2303 -87.9389 288° West 271 312 8,900 -2,293 Descending Chicago Center
Sun 11:17:45 AM 42.2889 -87.9711 338° Northwest 229 264 6,700 -2,488 Descending Chicago Center
Sun 11:18:47 AM 42.3372 -87.9728 359° North 207 238 3,800 -2,032 Descending Chicago Center
Sun 11:19:49 AM 42.3839 -87.9383 29° Northeast 173 199 2,500 -939 Descending Chicago Center
Sun 11:21:46 AM 42.4167 -87.8500 63° Northeast 141 162 1,000 -380 Descending Chicago TRACON
Sun 11:23:46 AM 42.4167 -87.8500 180° South 141 162 1,000  Level Chicago TRACON

Login

Don't have an account? Register now (free) for customized features, flight alerts, and more!